sensor_id;sensor_type;location;lat;lon;timestamp;pressure;altitude;pressure_sealevel;temperature;humidity
49529;BME280;35423;37.320;-121.762;2022-08-23T00:02:24;99904.26;;;48.85;7.61
49529;BME280;35423;37.320;-121.762;2022-08-23T00:04:51;99907.78;;;48.93;7.77
49529;BME280;35423;37.320;-121.762;2022-08-23T00:07:18;99900.41;;;48.53;7.88
49529;BME280;35423;37.320;-121.762;2022-08-23T00:09:44;99901.54;;;48.37;8.08
49529;BME280;35423;37.320;-121.762;2022-08-23T00:12:13;99901.86;;;48.21;8.25
49529;BME280;35423;37.320;-121.762;2022-08-23T00:14:39;99902.79;;;47.98;8.39
49529;BME280;35423;37.320;-121.762;2022-08-23T00:17:03;99896.94;;;47.47;8.55
49529;BME280;35423;37.320;-121.762;2022-08-23T00:19:30;99893.98;;;47.85;8.75
49529;BME280;35423;37.320;-121.762;2022-08-23T00:21:58;99897.64;;;47.35;8.89
49529;BME280;35423;37.320;-121.762;2022-08-23T00:24:25;99894.63;;;47.18;9.04
49529;BME280;35423;37.320;-121.762;2022-08-23T00:26:55;99897.14;;;47.27;9.29
49529;BME280;35423;37.320;-121.762;2022-08-23T00:29:15;99893.91;;;46.76;9.46
49529;BME280;35423;37.320;-121.762;2022-08-23T00:31:40;99893.09;;;46.80;9.62
49529;BME280;35423;37.320;-121.762;2022-08-23T00:34:10;99891.02;;;46.46;9.82
49529;BME280;35423;37.320;-121.762;2022-08-23T00:36:38;99891.71;;;45.96;9.95
49529;BME280;35423;37.320;-121.762;2022-08-23T00:39:03;99892.92;;;45.60;10.21
49529;BME280;35423;37.320;-121.762;2022-08-23T00:41:28;99890.52;;;45.53;10.36
49529;BME280;35423;37.320;-121.762;2022-08-23T00:43:57;99889.31;;;45.14;10.51
49529;BME280;35423;37.320;-121.762;2022-08-23T00:46:37;99886.16;;;45.42;10.71
49529;BME280;35423;37.320;-121.762;2022-08-23T00:48:53;99882.58;;;44.94;10.99
49529;BME280;35423;37.320;-121.762;2022-08-23T00:51:20;99879.36;;;44.47;11.15
49529;BME280;35423;37.320;-121.762;2022-08-23T00:53:49;99879.43;;;44.35;11.38
49529;BME280;35423;37.320;-121.762;2022-08-23T00:56:11;99881.18;;;44.02;11.38
49529;BME280;35423;37.320;-121.762;2022-08-23T00:58:35;99876.40;;;43.90;11.61
49529;BME280;35423;37.320;-121.762;2022-08-23T01:01:03;99876.01;;;43.71;11.74
49529;BME280;35423;37.320;-121.762;2022-08-23T01:03:28;99877.24;;;43.46;11.89
49529;BME280;35423;37.320;-121.762;2022-08-23T01:05:58;99877.78;;;43.77;11.94
49529;BME280;35423;37.320;-121.762;2022-08-23T01:08:19;99876.17;;;43.61;12.02
49529;BME280;35423;37.320;-121.762;2022-08-23T01:10:53;99879.87;;;43.54;12.02
49529;BME280;35423;37.320;-121.762;2022-08-23T01:13:15;99878.37;;;43.43;12.16
49529;BME280;35423;37.320;-121.762;2022-08-23T01:15:42;99872.63;;;43.45;12.24
49529;BME280;35423;37.320;-121.762;2022-08-23T01:18:06;99869.52;;;42.66;12.34
49529;BME280;35423;37.320;-121.762;2022-08-23T01:20:50;99867.02;;;43.14;12.54
49529;BME280;35423;37.320;-121.762;2022-08-23T01:25:38;99859.02;;;42.28;12.82
49529;BME280;35423;37.320;-121.762;2022-08-23T01:28:04;99861.87;;;41.83;13.04
49529;BME280;35423;37.320;-121.762;2022-08-23T01:30:33;99861.99;;;42.01;13.35
49529;BME280;35423;37.320;-121.762;2022-08-23T01:33:04;99859.97;;;41.94;13.46
49529;BME280;35423;37.320;-121.762;2022-08-23T01:35:31;99856.40;;;41.76;13.57
49529;BME280;35423;37.320;-121.762;2022-08-23T01:37:51;99857.11;;;41.26;13.78
49529;BME280;35423;37.320;-121.762;2022-08-23T01:40:18;99860.63;;;41.35;13.96
49529;BME280;35423;37.320;-121.762;2022-08-23T01:42:51;99858.94;;;40.98;14.23
49529;BME280;35423;37.320;-121.762;2022-08-23T01:45:17;99853.73;;;41.07;14.36
49529;BME280;35423;37.320;-121.762;2022-08-23T01:47:44;99842.80;;;40.64;14.63
49529;BME280;35423;37.320;-121.762;2022-08-23T01:50:11;99841.44;;;40.57;14.63
49529;BME280;35423;37.320;-121.762;2022-08-23T01:52:36;99839.22;;;40.16;14.85
49529;BME280;35423;37.320;-121.762;2022-08-23T01:55:08;99831.22;;;39.69;14.90
49529;BME280;35423;37.320;-121.762;2022-08-23T01:57:34;99827.25;;;39.58;15.09
49529;BME280;35423;37.320;-121.762;2022-08-23T02:00:02;99826.76;;;39.74;15.16
49529;BME280;35423;37.320;-121.762;2022-08-23T02:02:28;99826.80;;;39.89;15.26
49529;BME280;35423;37.320;-121.762;2022-08-23T02:04:55;99823.19;;;39.83;15.26
49529;BME280;35423;37.320;-121.762;2022-08-23T02:07:27;99822.55;;;39.59;15.40
49529;BME280;35423;37.320;-121.762;2022-08-23T02:09:51;99817.31;;;39.72;15.51
49529;BME280;35423;37.320;-121.762;2022-08-23T02:12:16;99819.74;;;39.94;15.52
49529;BME280;35423;37.320;-121.762;2022-08-23T02:14:41;99818.36;;;39.50;15.72
49529;BME280;35423;37.320;-121.762;2022-08-23T02:17:09;99817.14;;;38.82;15.95
49529;BME280;35423;37.320;-121.762;2022-08-23T02:19:35;99815.49;;;38.76;16.13
49529;BME280;35423;37.320;-121.762;2022-08-23T02:22:01;99813.72;;;38.92;16.12
49529;BME280;35423;37.320;-121.762;2022-08-23T02:24:26;99817.41;;;38.39;16.43
49529;BME280;35423;37.320;-121.762;2022-08-23T02:26:53;99820.14;;;38.08;16.65
49529;BME280;35423;37.320;-121.762;2022-08-23T02:29:18;99827.83;;;37.81;16.79
49529;BME280;35423;37.320;-121.762;2022-08-23T02:31:44;99831.39;;;37.73;17.03
49529;BME280;35423;37.320;-121.762;2022-08-23T02:34:16;99833.72;;;37.28;17.21
49529;BME280;35423;37.320;-121.762;2022-08-23T02:36:41;99832.63;;;37.10;17.48
49529;BME280;35423;37.320;-121.762;2022-08-23T02:39:09;99832.78;;;36.77;17.71
49529;BME280;35423;37.320;-121.762;2022-08-23T02:41:34;99838.88;;;36.86;17.85
49529;BME280;35423;37.320;-121.762;2022-08-23T02:44:01;99838.56;;;36.11;18.00
49529;BME280;35423;37.320;-121.762;2022-08-23T02:46:28;99839.97;;;36.43;18.13
49529;BME280;35423;37.320;-121.762;2022-08-23T02:48:53;99839.53;;;36.40;18.23
49529;BME280;35423;37.320;-121.762;2022-08-23T02:51:20;99837.74;;;35.97;18.49
49529;BME280;35423;37.320;-121.762;2022-08-23T02:53:45;99840.84;;;35.86;18.67
49529;BME280;35423;37.320;-121.762;2022-08-23T02:56:13;99840.49;;;36.06;18.82
49529;BME280;35423;37.320;-121.762;2022-08-23T02:58:41;99840.21;;;35.61;18.96
49529;BME280;35423;37.320;-121.762;2022-08-23T03:01:15;99839.16;;;35.43;19.02
49529;BME280;35423;37.320;-121.762;2022-08-23T03:03:33;99838.57;;;35.60;19.00
49529;BME280;35423;37.320;-121.762;2022-08-23T03:06:01;99842.32;;;35.03;19.04
49529;BME280;35423;37.320;-121.762;2022-08-23T03:08:27;99841.17;;;34.91;19.25
49529;BME280;35423;37.320;-121.762;2022-08-23T03:10:58;99840.14;;;35.23;19.44
49529;BME280;35423;37.320;-121.762;2022-08-23T03:13:25;99839.68;;;34.90;19.54
49529;BME280;35423;37.320;-121.762;2022-08-23T03:15:52;99840.04;;;34.76;19.63
49529;BME280;35423;37.320;-121.762;2022-08-23T03:18:18;99840.04;;;34.63;19.71
49529;BME280;35423;37.320;-121.762;2022-08-23T03:20:45;99840.35;;;34.76;19.81
49529;BME280;35423;37.320;-121.762;2022-08-23T03:23:11;99841.54;;;34.57;19.96
49529;BME280;35423;37.320;-121.762;2022-08-23T03:25:38;99841.61;;;34.21;20.18
49529;BME280;35423;37.320;-121.762;2022-08-23T03:28:08;99845.17;;;34.08;20.32
49529;BME280;35423;37.320;-121.762;2022-08-23T03:30:34;99847.31;;;34.22;20.46
49529;BME280;35423;37.320;-121.762;2022-08-23T03:33:00;99848.80;;;33.62;20.55
49529;BME280;35423;37.320;-121.762;2022-08-23T03:35:26;99851.39;;;34.00;20.69
49529;BME280;35423;37.320;-121.762;2022-08-23T03:37:51;99853.71;;;33.95;20.79
49529;BME280;35423;37.320;-121.762;2022-08-23T03:40:20;99854.46;;;33.81;20.88
49529;BME280;35423;37.320;-121.762;2022-08-23T03:42:46;99857.42;;;33.73;20.99
49529;BME280;35423;37.320;-121.762;2022-08-23T03:45:12;99855.66;;;33.51;21.10
49529;BME280;35423;37.320;-121.762;2022-08-23T03:47:43;99859.02;;;33.31;21.21
49529;BME280;35423;37.320;-121.762;2022-08-23T03:50:09;99857.37;;;33.24;21.31
49529;BME280;35423;37.320;-121.762;2022-08-23T03:52:44;99857.75;;;33.63;21.36
49529;BME280;35423;37.320;-121.762;2022-08-23T03:55:16;99857.01;;;33.26;21.48
49529;BME280;35423;37.320;-121.762;2022-08-23T03:57:46;99858.46;;;33.20;21.66
49529;BME280;35423;37.320;-121.762;2022-08-23T04:00:14;99858.41;;;33.33;21.77
49529;BME280;35423;37.320;-121.762;2022-08-23T04:02:37;99861.75;;;32.85;21.92
49529;BME280;35423;37.320;-121.762;2022-08-23T04:05:05;99861.83;;;32.64;21.95
49529;BME280;35423;37.320;-121.762;2022-08-23T04:07:31;99862.36;;;32.81;22.00
49529;BME280;35423;37.320;-121.762;2022-08-23T04:09:59;99863.08;;;32.53;22.18
49529;BME280;35423;37.320;-121.762;2022-08-23T04:12:25;99864.07;;;32.51;22.22
49529;BME280;35423;37.320;-121.762;2022-08-23T04:14:50;99860.23;;;32.29;22.33
49529;BME280;35423;37.320;-121.762;2022-08-23T04:17:16;99862.11;;;32.27;22.43
49529;BME280;35423;37.320;-121.762;2022-08-23T04:19:41;99864.59;;;32.54;22.64
49529;BME280;35423;37.320;-121.762;2022-08-23T04:22:11;99865.05;;;32.15;22.60
49529;BME280;35423;37.320;-121.762;2022-08-23T04:24:32;99865.05;;;32.28;22.74
49529;BME280;35423;37.320;-121.762;2022-08-23T04:26:57;99862.17;;;31.82;22.85
49529;BME280;35423;37.320;-121.762;2022-08-23T04:29:22;99859.96;;;32.27;22.90
49529;BME280;35423;37.320;-121.762;2022-08-23T04:31:48;99860.90;;;32.15;23.04
49529;BME280;35423;37.320;-121.762;2022-08-23T04:34:15;99865.48;;;31.89;23.05
49529;BME280;35423;37.320;-121.762;2022-08-23T04:36:43;99866.53;;;31.93;23.20
49529;BME280;35423;37.320;-121.762;2022-08-23T04:39:10;99865.89;;;31.31;23.31
49529;BME280;35423;37.320;-121.762;2022-08-23T04:41:36;99864.95;;;31.69;23.41
49529;BME280;35423;37.320;-121.762;2022-08-23T04:44:03;99863.96;;;31.58;23.54
49529;BME280;35423;37.320;-121.762;2022-08-23T04:46:27;99863.67;;;31.53;23.59
49529;BME280;35423;37.320;-121.762;2022-08-23T04:48:52;99864.72;;;31.68;23.66
49529;BME280;35423;37.320;-121.762;2022-08-23T04:51:18;99864.65;;;31.38;23.73
49529;BME280;35423;37.320;-121.762;2022-08-23T04:53:44;99862.58;;;31.26;23.82
49529;BME280;35423;37.320;-121.762;2022-08-23T04:56:10;99859.48;;;31.42;23.86
49529;BME280;35423;37.320;-121.762;2022-08-23T04:58:37;99859.85;;;31.25;24.02
49529;BME280;35423;37.320;-121.762;2022-08-23T05:01:04;99855.99;;;29.60;24.06
49529;BME280;35423;37.320;-121.762;2022-08-23T05:03:30;99855.21;;;31.19;23.93
49529;BME280;35423;37.320;-121.762;2022-08-23T05:05:59;99855.69;;;31.24;24.09
49529;BME280;35423;37.320;-121.762;2022-08-23T05:08:24;99855.68;;;30.92;24.16
49529;BME280;35423;37.320;-121.762;2022-08-23T05:11:00;99855.93;;;31.07;24.23
49529;BME280;35423;37.320;-121.762;2022-08-23T05:13:23;99854.40;;;31.22;24.34
49529;BME280;35423;37.320;-121.762;2022-08-23T05:15:50;99852.66;;;31.09;24.43
49529;BME280;35423;37.320;-121.762;2022-08-23T05:18:15;99851.51;;;30.58;24.62
49529;BME280;35423;37.320;-121.762;2022-08-23T05:20:41;99849.68;;;30.81;24.68
49529;BME280;35423;37.320;-121.762;2022-08-23T05:23:08;99848.20;;;30.35;24.80
49529;BME280;35423;37.320;-121.762;2022-08-23T05:25:34;99845.15;;;30.21;24.97
49529;BME280;35423;37.320;-121.762;2022-08-23T05:28:04;99844.67;;;29.75;25.21
49529;BME280;35423;37.320;-121.762;2022-08-23T05:30:33;99845.42;;;30.19;25.29
49529;BME280;35423;37.320;-121.762;2022-08-23T05:32:58;99845.40;;;30.15;25.28
49529;BME280;35423;37.320;-121.762;2022-08-23T05:35:24;99845.72;;;30.02;25.43
49529;BME280;35423;37.320;-121.762;2022-08-23T05:37:50;99845.78;;;29.91;25.50
49529;BME280;35423;37.320;-121.762;2022-08-23T05:40:19;99841.30;;;29.87;25.55
49529;BME280;35423;37.320;-121.762;2022-08-23T05:42:45;99837.42;;;30.04;25.59
49529;BME280;35423;37.320;-121.762;2022-08-23T05:45:10;99838.02;;;29.86;25.75
49529;BME280;35423;37.320;-121.762;2022-08-23T05:47:36;99834.49;;;29.70;25.87
49529;BME280;35423;37.320;-121.762;2022-08-23T05:50:05;99834.64;;;29.55;26.00
49529;BME280;35423;37.320;-121.762;2022-08-23T05:52:32;99835.20;;;29.67;26.11
49529;BME280;35423;37.320;-121.762;2022-08-23T05:54:59;99833.92;;;29.25;26.13
49529;BME280;35423;37.320;-121.762;2022-08-23T05:57:28;99830.35;;;29.63;26.15
49529;BME280;35423;37.320;-121.762;2022-08-23T05:59:58;99828.31;;;29.24;26.21
49529;BME280;35423;37.320;-121.762;2022-08-23T06:02:27;99828.38;;;29.41;26.29
49529;BME280;35423;37.320;-121.762;2022-08-23T06:05:09;99829.75;;;29.25;26.40
49529;BME280;35423;37.320;-121.762;2022-08-23T06:07:35;99830.66;;;29.34;26.45
49529;BME280;35423;37.320;-121.762;2022-08-23T06:10:00;99828.64;;;28.55;26.50
49529;BME280;35423;37.320;-121.762;2022-08-23T06:12:26;99827.13;;;29.03;26.44
49529;BME280;35423;37.320;-121.762;2022-08-23T06:14:51;99826.75;;;29.43;26.46
49529;BME280;35423;37.320;-121.762;2022-08-23T06:17:17;99825.45;;;28.69;26.57
49529;BME280;35423;37.320;-121.762;2022-08-23T06:19:45;99826.10;;;28.83;26.74
49529;BME280;35423;37.320;-121.762;2022-08-23T06:22:12;99826.09;;;28.63;26.90
49529;BME280;35423;37.320;-121.762;2022-08-23T06:24:38;99826.32;;;28.63;27.22
49529;BME280;35423;37.320;-121.762;2022-08-23T06:27:03;99823.18;;;28.33;26.99
49529;BME280;35423;37.320;-121.762;2022-08-23T06:29:37;99821.76;;;28.70;27.18
49529;BME280;35423;37.320;-121.762;2022-08-23T06:32:04;99821.43;;;28.28;27.20
49529;BME280;35423;37.320;-121.762;2022-08-23T06:34:35;99817.46;;;28.46;27.27
49529;BME280;35423;37.320;-121.762;2022-08-23T06:37:00;99819.86;;;28.60;27.35
49529;BME280;35423;37.320;-121.762;2022-08-23T06:39:28;99818.62;;;28.69;27.24
49529;BME280;35423;37.320;-121.762;2022-08-23T06:41:58;99815.34;;;28.51;27.20
49529;BME280;35423;37.320;-121.762;2022-08-23T06:44:22;99812.43;;;28.42;27.22
49529;BME280;35423;37.320;-121.762;2022-08-23T06:46:49;99810.49;;;28.67;27.16
49529;BME280;35423;37.320;-121.762;2022-08-23T06:49:17;99811.81;;;28.61;27.22
49529;BME280;35423;37.320;-121.762;2022-08-23T06:51:49;99808.82;;;28.50;27.30
49529;BME280;35423;37.320;-121.762;2022-08-23T06:54:14;99810.87;;;28.22;27.44
49529;BME280;35423;37.320;-121.762;2022-08-23T06:56:40;99811.23;;;28.38;27.49
49529;BME280;35423;37.320;-121.762;2022-08-23T06:59:05;99811.23;;;28.04;27.57
49529;BME280;35423;37.320;-121.762;2022-08-23T07:01:33;99804.26;;;28.11;27.43
49529;BME280;35423;37.320;-121.762;2022-08-23T07:03:59;99803.22;;;28.01;27.45
49529;BME280;35423;37.320;-121.762;2022-08-23T07:06:26;99802.44;;;28.23;27.48
49529;BME280;35423;37.320;-121.762;2022-08-23T07:08:52;99799.62;;;28.17;27.59
49529;BME280;35423;37.320;-121.762;2022-08-23T07:11:19;99794.73;;;28.15;27.59
49529;BME280;35423;37.320;-121.762;2022-08-23T07:13:44;99791.66;;;28.47;27.62
49529;BME280;35423;37.320;-121.762;2022-08-23T07:16:10;99790.42;;;27.84;27.69
49529;BME280;35423;37.320;-121.762;2022-08-23T07:18:37;99792.33;;;28.24;27.79
49529;BME280;35423;37.320;-121.762;2022-08-23T07:21:04;99787.93;;;27.66;27.84
49529;BME280;35423;37.320;-121.762;2022-08-23T07:23:31;99786.98;;;27.79;27.99
49529;BME280;35423;37.320;-121.762;2022-08-23T07:26:05;99784.30;;;28.01;27.99
49529;BME280;35423;37.320;-121.762;2022-08-23T07:28:38;99778.00;;;27.93;28.11
49529;BME280;35423;37.320;-121.762;2022-08-23T07:31:09;99776.70;;;27.39;28.19
49529;BME280;35423;37.320;-121.762;2022-08-23T07:33:29;99777.22;;;27.96;28.09
49529;BME280;35423;37.320;-121.762;2022-08-23T07:36:00;99779.43;;;27.66;28.17
49529;BME280;35423;37.320;-121.762;2022-08-23T07:38:25;99778.06;;;27.23;28.29
49529;BME280;35423;37.320;-121.762;2022-08-23T07:40:51;99776.81;;;27.63;28.44
49529;BME280;35423;37.320;-121.762;2022-08-23T07:43:17;99771.31;;;27.55;28.58
49529;BME280;35423;37.320;-121.762;2022-08-23T07:45:44;99769.80;;;27.30;28.64
49529;BME280;35423;37.320;-121.762;2022-08-23T07:48:10;99765.61;;;27.27;28.64
49529;BME280;35423;37.320;-121.762;2022-08-23T07:50:35;99763.82;;;27.40;28.72
49529;BME280;35423;37.320;-121.762;2022-08-23T07:53:00;99761.22;;;26.82;28.80
49529;BME280;35423;37.320;-121.762;2022-08-23T07:55:28;99761.44;;;27.23;28.95
49529;BME280;35423;37.320;-121.762;2022-08-23T07:57:52;99761.64;;;27.19;28.99
49529;BME280;35423;37.320;-121.762;2022-08-23T08:00:21;99760.06;;;27.19;29.06
49529;BME280;35423;37.320;-121.762;2022-08-23T08:02:49;99760.25;;;27.09;29.17
49529;BME280;35423;37.320;-121.762;2022-08-23T08:05:15;99759.70;;;27.00;29.15
49529;BME280;35423;37.320;-121.762;2022-08-23T08:07:42;99757.60;;;27.34;29.31
49529;BME280;35423;37.320;-121.762;2022-08-23T08:10:08;99754.69;;;26.99;29.35
49529;BME280;35423;37.320;-121.762;2022-08-23T08:12:34;99753.93;;;26.90;29.46
49529;BME280;35423;37.320;-121.762;2022-08-23T08:15:07;99751.10;;;27.15;29.46
49529;BME280;35423;37.320;-121.762;2022-08-23T08:17:33;99750.10;;;26.61;29.55
49529;BME280;35423;37.320;-121.762;2022-08-23T08:19:59;99748.24;;;26.21;29.57
49529;BME280;35423;37.320;-121.762;2022-08-23T08:22:25;99747.24;;;26.54;29.62
49529;BME280;35423;37.320;-121.762;2022-08-23T08:24:53;99745.59;;;26.70;29.59
49529;BME280;35423;37.320;-121.762;2022-08-23T08:27:20;99742.22;;;26.65;29.56
49529;BME280;35423;37.320;-121.762;2022-08-23T08:29:45;99741.83;;;26.28;29.66
49529;BME280;35423;37.320;-121.762;2022-08-23T08:32:10;99741.32;;;26.17;29.73
49529;BME280;35423;37.320;-121.762;2022-08-23T08:34:37;99740.57;;;26.34;29.79
49529;BME280;35423;37.320;-121.762;2022-08-23T08:37:03;99739.01;;;25.79;29.86
49529;BME280;35423;37.320;-121.762;2022-08-23T08:39:31;99737.75;;;26.24;29.87
49529;BME280;35423;37.320;-121.762;2022-08-23T08:42:14;99736.76;;;26.48;29.99
49529;BME280;35423;37.320;-121.762;2022-08-23T08:44:32;99735.46;;;26.33;30.10
49529;BME280;35423;37.320;-121.762;2022-08-23T08:46:51;99735.13;;;26.28;30.23
49529;BME280;35423;37.320;-121.762;2022-08-23T08:49:21;99736.86;;;25.96;30.33
49529;BME280;35423;37.320;-121.762;2022-08-23T08:51:45;99737.74;;;26.24;30.37
49529;BME280;35423;37.320;-121.762;2022-08-23T08:54:10;99738.91;;;25.86;30.54
49529;BME280;35423;37.320;-121.762;2022-08-23T08:56:37;99737.62;;;26.02;30.72
49529;BME280;35423;37.320;-121.762;2022-08-23T08:59:07;99737.44;;;26.02;30.77
49529;BME280;35423;37.320;-121.762;2022-08-23T09:01:32;99739.45;;;25.96;30.83
49529;BME280;35423;37.320;-121.762;2022-08-23T09:03:58;99735.38;;;26.03;30.90
49529;BME280;35423;37.320;-121.762;2022-08-23T09:06:30;99731.52;;;26.01;30.91
49529;BME280;35423;37.320;-121.762;2022-08-23T09:09:09;99726.96;;;25.73;31.09
49529;BME280;35423;37.320;-121.762;2022-08-23T09:11:30;99721.50;;;25.62;31.25
49529;BME280;35423;37.320;-121.762;2022-08-23T09:13:56;99714.74;;;25.66;31.36
49529;BME280;35423;37.320;-121.762;2022-08-23T09:16:20;99712.10;;;25.39;31.32
49529;BME280;35423;37.320;-121.762;2022-08-23T09:18:37;99709.01;;;25.50;31.41
49529;BME280;35423;37.320;-121.762;2022-08-23T09:21:04;99706.96;;;25.37;31.57
49529;BME280;35423;37.320;-121.762;2022-08-23T09:23:32;99705.69;;;25.33;31.69
49529;BME280;35423;37.320;-121.762;2022-08-23T09:25:55;99705.38;;;25.36;31.69
49529;BME280;35423;37.320;-121.762;2022-08-23T09:28:21;99703.67;;;25.14;31.71
49529;BME280;35423;37.320;-121.762;2022-08-23T09:30:50;99701.69;;;25.63;31.66
49529;BME280;35423;37.320;-121.762;2022-08-23T09:33:17;99706.88;;;25.12;31.89
49529;BME280;35423;37.320;-121.762;2022-08-23T09:35:40;99706.54;;;25.33;31.93
49529;BME280;35423;37.320;-121.762;2022-08-23T09:38:15;99705.74;;;25.30;31.90
49529;BME280;35423;37.320;-121.762;2022-08-23T09:40:36;99704.01;;;25.02;31.92
49529;BME280;35423;37.320;-121.762;2022-08-23T09:43:10;99702.94;;;24.89;31.74
49529;BME280;35423;37.320;-121.762;2022-08-23T09:45:26;99705.06;;;25.30;31.73
49529;BME280;35423;37.320;-121.762;2022-08-23T09:47:50;99703.34;;;24.97;31.81
49529;BME280;35423;37.320;-121.762;2022-08-23T09:50:23;99701.75;;;25.11;32.00
49529;BME280;35423;37.320;-121.762;2022-08-23T09:52:47;99697.32;;;24.98;32.25
49529;BME280;35423;37.320;-121.762;2022-08-23T09:57:39;99696.73;;;25.03;32.43
49529;BME280;35423;37.320;-121.762;2022-08-23T10:02:34;99698.71;;;24.81;32.48
49529;BME280;35423;37.320;-121.762;2022-08-23T10:05:02;99703.23;;;24.78;32.60
49529;BME280;35423;37.320;-121.762;2022-08-23T10:07:28;99702.31;;;24.66;32.77
49529;BME280;35423;37.320;-121.762;2022-08-23T10:09:51;99702.83;;;24.83;32.82
49529;BME280;35423;37.320;-121.762;2022-08-23T10:12:18;99701.15;;;24.72;32.81
49529;BME280;35423;37.320;-121.762;2022-08-23T10:14:43;99694.81;;;24.72;32.69
49529;BME280;35423;37.320;-121.762;2022-08-23T10:17:17;99692.48;;;24.67;32.68
49529;BME280;35423;37.320;-121.762;2022-08-23T10:19:44;99690.73;;;24.79;32.76
49529;BME280;35423;37.320;-121.762;2022-08-23T10:22:13;99692.53;;;24.26;32.90
49529;BME280;35423;37.320;-121.762;2022-08-23T10:24:40;99693.55;;;24.65;33.04
49529;BME280;35423;37.320;-121.762;2022-08-23T10:27:07;99693.17;;;24.37;32.95
49529;BME280;35423;37.320;-121.762;2022-08-23T10:29:35;99690.31;;;24.49;33.02
49529;BME280;35423;37.320;-121.762;2022-08-23T10:32:00;99687.51;;;24.11;33.16
49529;BME280;35423;37.320;-121.762;2022-08-23T10:34:29;99687.88;;;24.05;33.26
49529;BME280;35423;37.320;-121.762;2022-08-23T10:36:54;99687.86;;;24.29;33.33
49529;BME280;35423;37.320;-121.762;2022-08-23T10:39:15;99689.49;;;23.89;33.48
49529;BME280;35423;37.320;-121.762;2022-08-23T10:41:45;99689.56;;;24.26;33.56
49529;BME280;35423;37.320;-121.762;2022-08-23T10:44:20;99690.66;;;23.82;33.60
49529;BME280;35423;37.320;-121.762;2022-08-23T10:46:45;99689.46;;;24.32;33.36
49529;BME280;35423;37.320;-121.762;2022-08-23T10:49:02;99689.31;;;24.14;33.52
49529;BME280;35423;37.320;-121.762;2022-08-23T10:51:31;99687.36;;;24.00;33.63
49529;BME280;35423;37.320;-121.762;2022-08-23T10:53:57;99684.73;;;23.97;33.66
49529;BME280;35423;37.320;-121.762;2022-08-23T10:56:19;99680.39;;;23.72;33.74
49529;BME280;35423;37.320;-121.762;2022-08-23T10:58:50;99677.42;;;24.12;33.79
49529;BME280;35423;37.320;-121.762;2022-08-23T11:01:15;99676.38;;;23.80;33.86
49529;BME280;35423;37.320;-121.762;2022-08-23T11:03:43;99676.97;;;23.75;33.89
49529;BME280;35423;37.320;-121.762;2022-08-23T11:08:40;99673.33;;;23.69;33.92
49529;BME280;35423;37.320;-121.762;2022-08-23T11:13:32;99672.29;;;23.65;33.92
49529;BME280;35423;37.320;-121.762;2022-08-23T11:16:04;99670.37;;;23.04;34.08
49529;BME280;35423;37.320;-121.762;2022-08-23T11:20:59;99666.71;;;23.73;34.12
49529;BME280;35423;37.320;-121.762;2022-08-23T11:25:45;99663.96;;;23.75;34.36
49529;BME280;35423;37.320;-121.762;2022-08-23T11:30:45;99661.54;;;23.21;34.50
49529;BME280;35423;37.320;-121.762;2022-08-23T11:33:12;99661.82;;;23.43;34.55
49529;BME280;35423;37.320;-121.762;2022-08-23T11:35:36;99659.07;;;23.65;34.50
49529;BME280;35423;37.320;-121.762;2022-08-23T11:38:02;99658.79;;;23.33;34.60
49529;BME280;35423;37.320;-121.762;2022-08-23T11:42:52;99654.72;;;23.09;34.45
49529;BME280;35423;37.320;-121.762;2022-08-23T11:45:27;99649.21;;;23.18;34.70
49529;BME280;35423;37.320;-121.762;2022-08-23T11:47:44;99645.00;;;22.90;34.84
49529;BME280;35423;37.320;-121.762;2022-08-23T11:50:24;99639.96;;;23.49;34.66
49529;BME280;35423;37.320;-121.762;2022-08-23T11:52:51;99637.45;;;23.33;34.74
49529;BME280;35423;37.320;-121.762;2022-08-23T11:55:18;99637.13;;;22.99;34.91
49529;BME280;35423;37.320;-121.762;2022-08-23T12:00:05;99638.35;;;22.52;35.27
49529;BME280;35423;37.320;-121.762;2022-08-23T12:04:51;99635.45;;;23.07;35.18
49529;BME280;35423;37.320;-121.762;2022-08-23T12:09:51;99636.06;;;22.75;35.19
49529;BME280;35423;37.320;-121.762;2022-08-23T12:12:13;99636.21;;;22.69;35.32
49529;BME280;35423;37.320;-121.762;2022-08-23T12:17:02;99633.02;;;22.48;35.47
49529;BME280;35423;37.320;-121.762;2022-08-23T12:19:31;99631.40;;;22.62;35.52
49529;BME280;35423;37.320;-121.762;2022-08-23T12:21:56;99631.79;;;22.65;35.55
49529;BME280;35423;37.320;-121.762;2022-08-23T12:24:27;99631.38;;;22.67;35.60
49529;BME280;35423;37.320;-121.762;2022-08-23T12:26:57;99634.61;;;22.64;35.60
49529;BME280;35423;37.320;-121.762;2022-08-23T12:29:22;99635.69;;;22.60;35.63
49529;BME280;35423;37.320;-121.762;2022-08-23T12:31:51;99636.55;;;22.67;35.46
49529;BME280;35423;37.320;-121.762;2022-08-23T12:34:13;99638.66;;;22.49;35.64
49529;BME280;35423;37.320;-121.762;2022-08-23T12:36:36;99636.35;;;22.43;35.68
49529;BME280;35423;37.320;-121.762;2022-08-23T12:39:01;99632.19;;;22.61;35.77
49529;BME280;35423;37.320;-121.762;2022-08-23T12:41:24;99631.59;;;22.22;35.90
49529;BME280;35423;37.320;-121.762;2022-08-23T12:43:54;99628.98;;;22.15;35.99
49529;BME280;35423;37.320;-121.762;2022-08-23T12:48:45;99626.33;;;22.60;36.09
49529;BME280;35423;37.320;-121.762;2022-08-23T12:51:10;99627.85;;;22.10;36.14
49529;BME280;35423;37.320;-121.762;2022-08-23T12:53:35;99632.41;;;22.08;36.16
49529;BME280;35423;37.320;-121.762;2022-08-23T12:56:03;99631.52;;;22.06;36.13
49529;BME280;35423;37.320;-121.762;2022-08-23T12:58:29;99628.67;;;22.01;36.09
49529;BME280;35423;37.320;-121.762;2022-08-23T13:00:57;99627.73;;;22.17;36.22
49529;BME280;35423;37.320;-121.762;2022-08-23T13:03:23;99625.72;;;21.89;36.23